sensor_id;sensor_type;location;lat;lon;timestamp;pressure;altitude;pressure_sealevel;temperature;humidity
76553;BME280;65395;53.168;18.156;2023-04-24T00:01:07;100032.08;;;12.15;79.50
76553;BME280;65395;53.168;18.156;2023-04-24T00:03:33;100030.46;;;12.16;79.57
76553;BME280;65395;53.168;18.156;2023-04-24T00:06:00;100035.20;;;12.19;79.61
76553;BME280;65395;53.168;18.156;2023-04-24T00:08:29;100035.44;;;12.21;79.68
76553;BME280;65395;53.168;18.156;2023-04-24T00:10:56;100033.33;;;12.24;79.82
76553;BME280;65395;53.168;18.156;2023-04-24T00:13:23;100034.10;;;12.27;79.74
76553;BME280;65395;53.168;18.156;2023-04-24T00:15:50;100033.91;;;12.26;79.77
76553;BME280;65395;53.168;18.156;2023-04-24T00:18:17;100029.31;;;12.26;79.68
76553;BME280;65395;53.168;18.156;2023-04-24T00:20:44;100026.15;;;12.28;79.71
76553;BME280;65395;53.168;18.156;2023-04-24T00:23:11;100020.31;;;12.29;79.94
76553;BME280;65395;53.168;18.156;2023-04-24T00:25:38;100012.00;;;12.31;79.90
76553;BME280;65395;53.168;18.156;2023-04-24T00:28:04;100008.48;;;12.33;79.81
76553;BME280;65395;53.168;18.156;2023-04-24T00:30:32;100006.59;;;12.35;79.82
76553;BME280;65395;53.168;18.156;2023-04-24T00:32:59;100011.48;;;12.36;79.78
76553;BME280;65395;53.168;18.156;2023-04-24T00:35:25;100011.60;;;12.37;79.77
76553;BME280;65395;53.168;18.156;2023-04-24T00:37:52;100007.35;;;12.38;79.68
76553;BME280;65395;53.168;18.156;2023-04-24T00:40:19;100009.23;;;12.36;79.78
76553;BME280;65395;53.168;18.156;2023-04-24T00:42:46;100006.59;;;12.35;79.87
76553;BME280;65395;53.168;18.156;2023-04-24T00:45:13;100005.85;;;12.35;79.73
76553;BME280;65395;53.168;18.156;2023-04-24T00:47:41;99996.52;;;12.36;79.89
76553;BME280;65395;53.168;18.156;2023-04-24T00:50:08;99990.98;;;12.37;79.98
76553;BME280;65395;53.168;18.156;2023-04-24T00:52:35;99990.67;;;12.37;79.94
76553;BME280;65395;53.168;18.156;2023-04-24T00:55:02;99988.64;;;12.37;80.06
76553;BME280;65395;53.168;18.156;2023-04-24T00:57:30;99979.70;;;12.33;79.92
76553;BME280;65395;53.168;18.156;2023-04-24T00:59:57;99989.11;;;12.34;79.81
76553;BME280;65395;53.168;18.156;2023-04-24T01:02:24;99994.49;;;12.33;79.94
76553;BME280;65395;53.168;18.156;2023-04-24T01:04:52;99997.15;;;12.31;80.03
76553;BME280;65395;53.168;18.156;2023-04-24T01:07:20;99998.45;;;12.30;80.02
76553;BME280;65395;53.168;18.156;2023-04-24T01:09:48;99998.14;;;12.28;80.17
76553;BME280;65395;53.168;18.156;2023-04-24T01:12:19;99992.08;;;12.26;80.04
76553;BME280;65395;53.168;18.156;2023-04-24T01:14:45;99991.42;;;12.24;80.01
76553;BME280;65395;53.168;18.156;2023-04-24T01:17:12;99988.63;;;12.22;80.12
76553;BME280;65395;53.168;18.156;2023-04-24T01:19:39;99987.66;;;12.21;79.97
76553;BME280;65395;53.168;18.156;2023-04-24T01:22:10;99986.08;;;12.21;80.09
76553;BME280;65395;53.168;18.156;2023-04-24T01:24:38;99989.40;;;12.20;80.12
76553;BME280;65395;53.168;18.156;2023-04-24T01:27:05;99983.61;;;12.19;80.03
76553;BME280;65395;53.168;18.156;2023-04-24T01:29:32;99976.20;;;12.16;80.00
76553;BME280;65395;53.168;18.156;2023-04-24T01:32:00;99974.39;;;12.16;80.12
76553;BME280;65395;53.168;18.156;2023-04-24T01:34:27;99971.83;;;12.18;80.26
76553;BME280;65395;53.168;18.156;2023-04-24T01:36:54;99968.91;;;12.19;80.31
76553;BME280;65395;53.168;18.156;2023-04-24T01:39:21;99971.19;;;12.21;80.10
76553;BME280;65395;53.168;18.156;2023-04-24T01:41:49;99968.70;;;12.21;80.09
76553;BME280;65395;53.168;18.156;2023-04-24T01:44:18;99971.59;;;12.20;80.00
76553;BME280;65395;53.168;18.156;2023-04-24T01:46:45;99973.06;;;12.17;80.09
76553;BME280;65395;53.168;18.156;2023-04-24T01:49:12;99970.84;;;12.15;80.05
76553;BME280;65395;53.168;18.156;2023-04-24T01:51:39;99969.51;;;12.12;80.13
76553;BME280;65395;53.168;18.156;2023-04-24T01:54:06;99969.77;;;12.09;80.12
76553;BME280;65395;53.168;18.156;2023-04-24T01:56:34;99965.04;;;12.06;80.23
76553;BME280;65395;53.168;18.156;2023-04-24T01:59:03;99965.03;;;12.05;80.17
76553;BME280;65395;53.168;18.156;2023-04-24T02:01:34;99965.21;;;12.05;80.20
76553;BME280;65395;53.168;18.156;2023-04-24T02:04:04;99965.81;;;12.05;80.24
76553;BME280;65395;53.168;18.156;2023-04-24T02:06:31;99962.61;;;12.04;80.28
76553;BME280;65395;53.168;18.156;2023-04-24T02:09:00;99960.84;;;12.03;80.18
76553;BME280;65395;53.168;18.156;2023-04-24T02:11:28;99957.51;;;12.02;80.26
76553;BME280;65395;53.168;18.156;2023-04-24T02:13:55;99955.71;;;11.99;80.14
76553;BME280;65395;53.168;18.156;2023-04-24T02:16:22;99955.95;;;11.96;80.19
76553;BME280;65395;53.168;18.156;2023-04-24T02:18:50;99953.96;;;11.93;80.24
76553;BME280;65395;53.168;18.156;2023-04-24T02:21:17;99954.18;;;11.91;80.26
76553;BME280;65395;53.168;18.156;2023-04-24T02:23:44;99953.84;;;11.91;80.28
76553;BME280;65395;53.168;18.156;2023-04-24T02:26:13;99951.02;;;11.90;80.40
76553;BME280;65395;53.168;18.156;2023-04-24T02:28:39;99948.70;;;11.90;80.41
76553;BME280;65395;53.168;18.156;2023-04-24T02:31:06;99946.41;;;11.90;80.47
76553;BME280;65395;53.168;18.156;2023-04-24T02:33:33;99943.59;;;11.91;80.35
76553;BME280;65395;53.168;18.156;2023-04-24T02:36:00;99941.54;;;11.92;80.45
76553;BME280;65395;53.168;18.156;2023-04-24T02:38:27;99936.50;;;11.93;80.45
76553;BME280;65395;53.168;18.156;2023-04-24T02:40:53;99937.18;;;11.93;80.54
76553;BME280;65395;53.168;18.156;2023-04-24T02:43:20;99937.30;;;11.92;80.54
76553;BME280;65395;53.168;18.156;2023-04-24T02:45:47;99934.05;;;11.90;80.53
76553;BME280;65395;53.168;18.156;2023-04-24T02:48:15;99930.53;;;11.89;80.46
76553;BME280;65395;53.168;18.156;2023-04-24T02:50:42;99930.08;;;11.89;80.44
76553;BME280;65395;53.168;18.156;2023-04-24T02:53:09;99930.59;;;11.91;80.53
76553;BME280;65395;53.168;18.156;2023-04-24T02:55:36;99929.02;;;11.92;80.46
76553;BME280;65395;53.168;18.156;2023-04-24T02:58:03;99924.73;;;11.93;80.60
76553;BME280;65395;53.168;18.156;2023-04-24T03:00:30;99926.09;;;11.93;80.70
76553;BME280;65395;53.168;18.156;2023-04-24T03:02:57;99922.52;;;11.94;80.69
76553;BME280;65395;53.168;18.156;2023-04-24T03:05:23;99922.67;;;11.92;80.64
76553;BME280;65395;53.168;18.156;2023-04-24T03:07:50;99923.91;;;11.90;80.68
76553;BME280;65395;53.168;18.156;2023-04-24T03:10:19;99918.61;;;11.89;80.75
76553;BME280;65395;53.168;18.156;2023-04-24T03:12:45;99920.32;;;11.88;80.77
76553;BME280;65395;53.168;18.156;2023-04-24T03:15:12;99920.75;;;11.88;80.94
76553;BME280;65395;53.168;18.156;2023-04-24T03:17:39;99924.98;;;11.90;80.94
76553;BME280;65395;53.168;18.156;2023-04-24T03:20:07;99926.00;;;11.91;81.08
76553;BME280;65395;53.168;18.156;2023-04-24T03:22:35;99925.88;;;11.91;81.11
76553;BME280;65395;53.168;18.156;2023-04-24T03:25:03;99926.02;;;11.93;81.23
76553;BME280;65395;53.168;18.156;2023-04-24T03:27:30;99925.09;;;11.94;81.24
76553;BME280;65395;53.168;18.156;2023-04-24T03:30:02;99921.55;;;11.96;81.24
76553;BME280;65395;53.168;18.156;2023-04-24T03:32:39;99922.55;;;11.98;81.19
76553;BME280;65395;53.168;18.156;2023-04-24T03:35:07;99924.82;;;12.00;81.20
76553;BME280;65395;53.168;18.156;2023-04-24T03:37:35;99924.73;;;12.01;81.13
76553;BME280;65395;53.168;18.156;2023-04-24T03:40:17;99928.42;;;12.03;81.27
76553;BME280;65395;53.168;18.156;2023-04-24T03:42:44;99934.10;;;12.03;81.38
76553;BME280;65395;53.168;18.156;2023-04-24T03:45:11;99940.27;;;12.06;81.49
76553;BME280;65395;53.168;18.156;2023-04-24T03:47:39;99949.18;;;12.10;81.51
76553;BME280;65395;53.168;18.156;2023-04-24T03:50:06;99945.29;;;12.14;81.46
76553;BME280;65395;53.168;18.156;2023-04-24T03:52:34;99946.90;;;12.18;81.45
76553;BME280;65395;53.168;18.156;2023-04-24T03:55:01;99940.73;;;12.22;81.36
76553;BME280;65395;53.168;18.156;2023-04-24T03:57:28;99937.23;;;12.25;81.33
76553;BME280;65395;53.168;18.156;2023-04-24T04:00:04;99938.45;;;12.29;81.33
76553;BME280;65395;53.168;18.156;2023-04-24T04:02:41;99939.08;;;12.33;81.21
76553;BME280;65395;53.168;18.156;2023-04-24T04:05:08;99936.38;;;12.37;81.26
76553;BME280;65395;53.168;18.156;2023-04-24T04:07:35;99928.16;;;12.41;81.33
76553;BME280;65395;53.168;18.156;2023-04-24T04:10:03;99929.67;;;12.45;81.41
76553;BME280;65395;53.168;18.156;2023-04-24T04:12:29;99928.93;;;12.46;81.50
76553;BME280;65395;53.168;18.156;2023-04-24T04:14:56;99923.02;;;12.48;81.28
76553;BME280;65395;53.168;18.156;2023-04-24T04:17:24;99919.59;;;12.49;81.32
76553;BME280;65395;53.168;18.156;2023-04-24T04:19:51;99915.17;;;12.51;81.45
76553;BME280;65395;53.168;18.156;2023-04-24T04:22:17;99915.91;;;12.53;81.49
76553;BME280;65395;53.168;18.156;2023-04-24T04:24:47;99912.66;;;12.53;81.41
76553;BME280;65395;53.168;18.156;2023-04-24T04:27:14;99910.84;;;12.54;81.41
76553;BME280;65395;53.168;18.156;2023-04-24T04:29:49;99916.06;;;12.55;81.48
76553;BME280;65395;53.168;18.156;2023-04-24T04:32:16;99915.46;;;12.55;81.39
76553;BME280;65395;53.168;18.156;2023-04-24T04:34:43;99915.27;;;12.57;81.51
76553;BME280;65395;53.168;18.156;2023-04-24T04:37:11;99920.09;;;12.61;81.57
76553;BME280;65395;53.168;18.156;2023-04-24T04:39:51;99916.52;;;12.62;81.33
76553;BME280;65395;53.168;18.156;2023-04-24T04:42:23;99914.08;;;12.63;81.44
76553;BME280;65395;53.168;18.156;2023-04-24T04:44:50;99907.83;;;12.65;81.50
76553;BME280;65395;53.168;18.156;2023-04-24T04:47:21;99905.95;;;12.66;81.63
76553;BME280;65395;53.168;18.156;2023-04-24T04:49:50;99905.73;;;12.66;81.53
76553;BME280;65395;53.168;18.156;2023-04-24T04:52:21;99911.85;;;12.68;81.56
76553;BME280;65395;53.168;18.156;2023-04-24T04:54:53;99912.93;;;12.72;81.51
76553;BME280;65395;53.168;18.156;2023-04-24T04:57:20;99909.34;;;12.77;81.39
76553;BME280;65395;53.168;18.156;2023-04-24T04:59:47;99905.91;;;12.81;81.45
76553;BME280;65395;53.168;18.156;2023-04-24T05:02:21;99905.38;;;12.87;81.30
76553;BME280;65395;53.168;18.156;2023-04-24T05:04:47;99905.38;;;12.93;81.29
76553;BME280;65395;53.168;18.156;2023-04-24T05:07:14;99899.59;;;13.01;81.25
76553;BME280;65395;53.168;18.156;2023-04-24T05:09:44;99894.27;;;13.12;81.04
76553;BME280;65395;53.168;18.156;2023-04-24T05:12:11;99894.08;;;13.24;80.84
76553;BME280;65395;53.168;18.156;2023-04-24T05:14:43;99888.17;;;13.38;80.72
76553;BME280;65395;53.168;18.156;2023-04-24T05:17:10;99887.73;;;13.50;80.52
76553;BME280;65395;53.168;18.156;2023-04-24T05:19:37;99889.04;;;13.61;80.22
76553;BME280;65395;53.168;18.156;2023-04-24T05:22:05;99893.75;;;13.72;79.99
76553;BME280;65395;53.168;18.156;2023-04-24T05:24:34;99889.74;;;13.82;79.77
76553;BME280;65395;53.168;18.156;2023-04-24T05:27:10;99889.48;;;13.92;79.45
76553;BME280;65395;53.168;18.156;2023-04-24T05:29:39;99889.13;;;13.99;79.02
76553;BME280;65395;53.168;18.156;2023-04-24T05:32:06;99884.87;;;14.09;79.03
76553;BME280;65395;53.168;18.156;2023-04-24T05:34:34;99882.35;;;14.18;78.75
76553;BME280;65395;53.168;18.156;2023-04-24T05:37:01;99884.89;;;14.25;78.88
76553;BME280;65395;53.168;18.156;2023-04-24T05:39:28;99886.92;;;14.33;78.39
76553;BME280;65395;53.168;18.156;2023-04-24T05:41:55;99885.20;;;14.40;78.34
76553;BME280;65395;53.168;18.156;2023-04-24T05:44:24;99885.00;;;14.48;77.94
76553;BME280;65395;53.168;18.156;2023-04-24T05:46:51;99888.73;;;14.51;77.74
76553;BME280;65395;53.168;18.156;2023-04-24T05:49:17;99882.65;;;14.53;77.30
76553;BME280;65395;53.168;18.156;2023-04-24T05:51:45;99886.52;;;14.55;77.42
76553;BME280;65395;53.168;18.156;2023-04-24T05:54:12;99887.50;;;14.62;77.13
76553;BME280;65395;53.168;18.156;2023-04-24T05:56:39;99886.95;;;14.73;76.72
76553;BME280;65395;53.168;18.156;2023-04-24T05:59:07;99884.27;;;14.86;76.50
76553;BME280;65395;53.168;18.156;2023-04-24T06:01:34;99885.98;;;14.98;76.44
76553;BME280;65395;53.168;18.156;2023-04-24T06:04:11;99888.41;;;15.10;75.96
76553;BME280;65395;53.168;18.156;2023-04-24T06:06:39;99889.30;;;15.23;75.82
76553;BME280;65395;53.168;18.156;2023-04-24T06:09:07;99883.84;;;15.34;75.41
76553;BME280;65395;53.168;18.156;2023-04-24T06:11:34;99889.10;;;15.42;75.02
76553;BME280;65395;53.168;18.156;2023-04-24T06:14:01;99890.45;;;15.49;74.90
76553;BME280;65395;53.168;18.156;2023-04-24T06:16:38;99893.34;;;15.54;74.78
76553;BME280;65395;53.168;18.156;2023-04-24T06:19:12;99888.12;;;15.60;74.61
76553;BME280;65395;53.168;18.156;2023-04-24T06:21:39;99888.52;;;15.65;74.40
76553;BME280;65395;53.168;18.156;2023-04-24T06:24:06;99884.59;;;15.72;74.13
76553;BME280;65395;53.168;18.156;2023-04-24T06:26:33;99884.06;;;15.77;73.89
76553;BME280;65395;53.168;18.156;2023-04-24T06:29:00;99876.70;;;15.80;73.97
76553;BME280;65395;53.168;18.156;2023-04-24T06:31:27;99877.74;;;15.91;73.84
76553;BME280;65395;53.168;18.156;2023-04-24T06:33:54;99875.61;;;15.96;73.43
76553;BME280;65395;53.168;18.156;2023-04-24T06:36:21;99871.02;;;16.00;73.32
76553;BME280;65395;53.168;18.156;2023-04-24T06:38:48;99870.56;;;16.06;73.26
76553;BME280;65395;53.168;18.156;2023-04-24T06:41:15;99868.18;;;16.11;72.91
76553;BME280;65395;53.168;18.156;2023-04-24T06:43:41;99862.85;;;16.19;72.66
76553;BME280;65395;53.168;18.156;2023-04-24T06:46:08;99865.04;;;16.27;72.56
76553;BME280;65395;53.168;18.156;2023-04-24T06:48:35;99865.07;;;16.37;72.59
76553;BME280;65395;53.168;18.156;2023-04-24T06:51:02;99867.61;;;16.44;72.09
76553;BME280;65395;53.168;18.156;2023-04-24T06:53:29;99866.66;;;16.49;71.94
76553;BME280;65395;53.168;18.156;2023-04-24T06:55:56;99864.67;;;16.53;71.89
76553;BME280;65395;53.168;18.156;2023-04-24T06:58:24;99864.61;;;16.60;71.81
76553;BME280;65395;53.168;18.156;2023-04-24T07:00:51;99866.02;;;16.68;71.69
76553;BME280;65395;53.168;18.156;2023-04-24T07:03:18;99868.09;;;16.72;71.35
76553;BME280;65395;53.168;18.156;2023-04-24T07:05:45;99863.34;;;16.77;71.21
76553;BME280;65395;53.168;18.156;2023-04-24T07:08:12;99863.55;;;16.83;71.12
76553;BME280;65395;53.168;18.156;2023-04-24T07:10:39;99862.92;;;16.89;70.73
76553;BME280;65395;53.168;18.156;2023-04-24T07:13:06;99860.04;;;16.96;70.57
76553;BME280;65395;53.168;18.156;2023-04-24T07:15:34;99859.21;;;17.06;70.34
76553;BME280;65395;53.168;18.156;2023-04-24T07:18:01;99860.96;;;17.16;69.93
76553;BME280;65395;53.168;18.156;2023-04-24T07:20:28;99855.66;;;17.24;69.54
76553;BME280;65395;53.168;18.156;2023-04-24T07:22:55;99855.05;;;17.31;69.21
76553;BME280;65395;53.168;18.156;2023-04-24T07:25:21;99844.98;;;17.37;68.47
76553;BME280;65395;53.168;18.156;2023-04-24T07:27:48;99850.73;;;17.52;68.35
76553;BME280;65395;53.168;18.156;2023-04-24T07:30:15;99850.91;;;17.66;67.96
76553;BME280;65395;53.168;18.156;2023-04-24T07:32:42;99849.68;;;17.76;67.47
76553;BME280;65395;53.168;18.156;2023-04-24T07:35:09;99849.91;;;17.84;66.77
76553;BME280;65395;53.168;18.156;2023-04-24T07:37:36;99849.38;;;17.93;66.90
76553;BME280;65395;53.168;18.156;2023-04-24T07:40:03;99850.43;;;18.03;66.39
76553;BME280;65395;53.168;18.156;2023-04-24T07:42:31;99850.60;;;18.12;65.80
76553;BME280;65395;53.168;18.156;2023-04-24T07:45:01;99847.95;;;18.18;65.59
76553;BME280;65395;53.168;18.156;2023-04-24T07:47:28;99852.39;;;18.23;65.46
76553;BME280;65395;53.168;18.156;2023-04-24T07:49:54;99850.68;;;18.26;65.55
76553;BME280;65395;53.168;18.156;2023-04-24T07:52:21;99851.77;;;18.32;64.80
76553;BME280;65395;53.168;18.156;2023-04-24T07:54:48;99846.30;;;18.33;64.47
76553;BME280;65395;53.168;18.156;2023-04-24T07:57:16;99841.06;;;18.34;64.29
76553;BME280;65395;53.168;18.156;2023-04-24T07:59:43;99841.23;;;18.35;63.40
76553;BME280;65395;53.168;18.156;2023-04-24T08:02:13;99839.23;;;18.34;63.58
76553;BME280;65395;53.168;18.156;2023-04-24T08:04:39;99839.94;;;18.40;63.76
76553;BME280;65395;53.168;18.156;2023-04-24T08:07:06;99840.23;;;18.51;63.05
76553;BME280;65395;53.168;18.156;2023-04-24T08:09:33;99843.20;;;18.60;62.44
76553;BME280;65395;53.168;18.156;2023-04-24T08:12:00;99844.30;;;18.67;61.90
76553;BME280;65395;53.168;18.156;2023-04-24T08:14:27;99841.54;;;18.77;62.07
76553;BME280;65395;53.168;18.156;2023-04-24T08:16:54;99844.66;;;18.90;61.64
76553;BME280;65395;53.168;18.156;2023-04-24T08:19:22;99848.41;;;19.02;60.88
76553;BME280;65395;53.168;18.156;2023-04-24T08:21:49;99850.94;;;19.08;60.64
76553;BME280;65395;53.168;18.156;2023-04-24T08:24:16;99850.66;;;19.16;59.83
76553;BME280;65395;53.168;18.156;2023-04-24T08:26:42;99849.59;;;19.21;59.53
76553;BME280;65395;53.168;18.156;2023-04-24T08:29:09;99848.13;;;19.25;59.50
76553;BME280;65395;53.168;18.156;2023-04-24T08:31:36;99847.34;;;19.29;59.51
76553;BME280;65395;53.168;18.156;2023-04-24T08:34:03;99844.48;;;19.33;58.82
76553;BME280;65395;53.168;18.156;2023-04-24T08:36:31;99841.37;;;19.33;58.64
76553;BME280;65395;53.168;18.156;2023-04-24T08:38:58;99838.64;;;19.31;58.24
76553;BME280;65395;53.168;18.156;2023-04-24T08:41:27;99838.85;;;19.23;58.25
76553;BME280;65395;53.168;18.156;2023-04-24T08:43:54;99837.01;;;19.23;58.16
76553;BME280;65395;53.168;18.156;2023-04-24T08:46:22;99838.62;;;19.23;57.50
76553;BME280;65395;53.168;18.156;2023-04-24T08:48:50;99836.45;;;19.26;57.23
76553;BME280;65395;53.168;18.156;2023-04-24T08:51:17;99835.56;;;19.34;56.92
76553;BME280;65395;53.168;18.156;2023-04-24T08:53:45;99837.46;;;19.43;56.88
76553;BME280;65395;53.168;18.156;2023-04-24T08:56:13;99842.86;;;19.55;56.88
76553;BME280;65395;53.168;18.156;2023-04-24T08:58:40;99845.38;;;19.66;56.64
76553;BME280;65395;53.168;18.156;2023-04-24T09:01:08;99839.73;;;19.74;55.90
76553;BME280;65395;53.168;18.156;2023-04-24T09:03:36;99841.27;;;19.75;55.46
76553;BME280;65395;53.168;18.156;2023-04-24T09:06:03;99849.70;;;19.71;55.17
76553;BME280;65395;53.168;18.156;2023-04-24T09:08:32;99853.16;;;19.66;55.26
76553;BME280;65395;53.168;18.156;2023-04-24T09:10:59;99850.53;;;19.63;55.02
76553;BME280;65395;53.168;18.156;2023-04-24T09:13:30;99849.92;;;19.63;54.57
76553;BME280;65395;53.168;18.156;2023-04-24T09:15:57;99843.09;;;19.60;54.15
76553;BME280;65395;53.168;18.156;2023-04-24T09:18:24;99850.21;;;19.62;54.21
76553;BME280;65395;53.168;18.156;2023-04-24T09:21:02;99850.64;;;19.59;54.32
76553;BME280;65395;53.168;18.156;2023-04-24T09:23:31;99852.11;;;19.54;54.50
76553;BME280;65395;53.168;18.156;2023-04-24T09:26:00;99853.23;;;19.46;54.15
76553;BME280;65395;53.168;18.156;2023-04-24T09:28:30;99855.23;;;19.32;54.16
76553;BME280;65395;53.168;18.156;2023-04-24T09:31:13;99855.04;;;19.18;54.73
76553;BME280;65395;53.168;18.156;2023-04-24T09:33:55;99848.52;;;19.04;54.71
76553;BME280;65395;53.168;18.156;2023-04-24T09:36:33;99845.52;;;18.92;55.35
76553;BME280;65395;53.168;18.156;2023-04-24T09:39:01;99841.13;;;18.84;55.46
76553;BME280;65395;53.168;18.156;2023-04-24T09:41:28;99837.30;;;18.79;55.81
76553;BME280;65395;53.168;18.156;2023-04-24T09:43:56;99830.70;;;18.76;55.99
76553;BME280;65395;53.168;18.156;2023-04-24T09:46:30;99831.16;;;18.76;55.60
76553;BME280;65395;53.168;18.156;2023-04-24T09:49:09;99826.55;;;18.78;55.78
76553;BME280;65395;53.168;18.156;2023-04-24T09:51:37;99822.42;;;18.83;55.59
76553;BME280;65395;53.168;18.156;2023-04-24T09:54:14;99818.12;;;18.87;55.84
76553;BME280;65395;53.168;18.156;2023-04-24T09:56:43;99819.12;;;18.97;55.75
76553;BME280;65395;53.168;18.156;2023-04-24T09:59:12;99814.66;;;19.13;55.49
76553;BME280;65395;53.168;18.156;2023-04-24T10:01:39;99811.64;;;19.33;55.61
76553;BME280;65395;53.168;18.156;2023-04-24T10:04:28;99810.53;;;19.59;55.03
76553;BME280;65395;53.168;18.156;2023-04-24T10:06:56;99809.14;;;19.87;54.20
76553;BME280;65395;53.168;18.156;2023-04-24T10:09:25;99810.98;;;20.10;53.75
76553;BME280;65395;53.168;18.156;2023-04-24T10:11:53;99806.60;;;20.39;53.55
76553;BME280;65395;53.168;18.156;2023-04-24T10:14:23;99804.34;;;20.64;53.34
76553;BME280;65395;53.168;18.156;2023-04-24T10:16:52;99798.16;;;20.79;52.74
76553;BME280;65395;53.168;18.156;2023-04-24T10:19:20;99798.53;;;20.87;52.53
76553;BME280;65395;53.168;18.156;2023-04-24T10:21:50;99793.44;;;20.95;52.15
76553;BME280;65395;53.168;18.156;2023-04-24T10:24:18;99779.09;;;20.89;51.64
76553;BME280;65395;53.168;18.156;2023-04-24T10:26:49;99797.20;;;20.96;51.17
76553;BME280;65395;53.168;18.156;2023-04-24T10:29:17;99798.95;;;20.94;51.33
76553;BME280;65395;53.168;18.156;2023-04-24T10:31:45;99796.80;;;20.95;50.93
76553;BME280;65395;53.168;18.156;2023-04-24T10:34:15;99796.13;;;20.96;51.24
76553;BME280;65395;53.168;18.156;2023-04-24T10:36:46;99790.91;;;21.04;50.85
76553;BME280;65395;53.168;18.156;2023-04-24T10:39:14;99798.32;;;21.16;50.69
76553;BME280;65395;53.168;18.156;2023-04-24T10:41:42;99798.69;;;21.26;50.49
76553;BME280;65395;53.168;18.156;2023-04-24T10:44:11;99800.09;;;21.36;50.68
76553;BME280;65395;53.168;18.156;2023-04-24T10:46:39;99802.90;;;21.48;50.27
76553;BME280;65395;53.168;18.156;2023-04-24T10:49:09;99802.94;;;21.57;49.59
76553;BME280;65395;53.168;18.156;2023-04-24T10:51:47;99804.64;;;21.65;49.19
76553;BME280;65395;53.168;18.156;2023-04-24T10:57:29;99800.33;;;21.81;48.31
76553;BME280;65395;53.168;18.156;2023-04-24T11:02:48;99804.90;;;21.97;48.59
76553;BME280;65395;53.168;18.156;2023-04-24T11:05:17;99804.06;;;22.09;48.20
76553;BME280;65395;53.168;18.156;2023-04-24T11:10:30;99805.99;;;22.22;47.67
76553;BME280;65395;53.168;18.156;2023-04-24T11:12:57;99808.08;;;22.25;47.55
76553;BME280;65395;53.168;18.156;2023-04-24T11:15:23;99808.15;;;22.26;47.64
76553;BME280;65395;53.168;18.156;2023-04-24T11:17:55;99809.00;;;22.28;47.75
76553;BME280;65395;53.168;18.156;2023-04-24T11:20:23;99810.52;;;22.24;47.59
76553;BME280;65395;53.168;18.156;2023-04-24T11:22:53;99808.91;;;22.19;47.24
76553;BME280;65395;53.168;18.156;2023-04-24T11:25:21;99811.73;;;22.12;47.06
76553;BME280;65395;53.168;18.156;2023-04-24T11:27:49;99812.58;;;22.02;46.70
76553;BME280;65395;53.168;18.156;2023-04-24T11:30:18;99813.83;;;21.83;46.18
76553;BME280;65395;53.168;18.156;2023-04-24T11:32:48;99822.50;;;21.64;46.87
76553;BME280;65395;53.168;18.156;2023-04-24T11:35:18;99823.34;;;21.62;47.19
76553;BME280;65395;53.168;18.156;2023-04-24T11:37:49;99820.83;;;21.69;47.30
76553;BME280;65395;53.168;18.156;2023-04-24T11:40:17;99815.41;;;21.77;46.60
76553;BME280;65395;53.168;18.156;2023-04-24T11:42:50;99816.40;;;21.77;46.24
76553;BME280;65395;53.168;18.156;2023-04-24T11:45:23;99818.01;;;21.77;46.53
76553;BME280;65395;53.168;18.156;2023-04-24T11:47:50;99813.85;;;21.87;46.62
76553;BME280;65395;53.168;18.156;2023-04-24T11:50:19;99810.96;;;22.05;46.69
76553;BME280;65395;53.168;18.156;2023-04-24T11:52:47;99814.20;;;22.15;46.39
76553;BME280;65395;53.168;18.156;2023-04-24T11:55:31;99809.30;;;22.20;46.19
76553;BME280;65395;53.168;18.156;2023-04-24T11:57:59;99815.66;;;22.18;46.13
76553;BME280;65395;53.168;18.156;2023-04-24T12:00:28;99815.73;;;22.10;45.92
76553;BME280;65395;53.168;18.156;2023-04-24T12:03:13;99809.90;;;22.05;46.19
76553;BME280;65395;53.168;18.156;2023-04-24T12:05:40;99809.59;;;22.06;46.22
76553;BME280;65395;53.168;18.156;2023-04-24T12:08:07;99805.07;;;22.09;46.27
76553;BME280;65395;53.168;18.156;2023-04-24T12:10:34;99802.14;;;22.01;45.86
76553;BME280;65395;53.168;18.156;2023-04-24T12:13:01;99797.16;;;21.99;46.09
76553;BME280;65395;53.168;18.156;2023-04-24T12:15:29;99792.48;;;22.12;46.28
76553;BME280;65395;53.168;18.156;2023-04-24T12:17:56;99801.32;;;22.21;46.09
76553;BME280;65395;53.168;18.156;2023-04-24T12:20:26;99801.23;;;22.13;45.59
76553;BME280;65395;53.168;18.156;2023-04-24T12:22:56;99800.15;;;21.97;45.65
76553;BME280;65395;53.168;18.156;2023-04-24T12:25:25;99793.93;;;21.95;45.91
76553;BME280;65395;53.168;18.156;2023-04-24T12:27:55;99779.77;;;22.23;45.53
76553;BME280;65395;53.168;18.156;2023-04-24T12:30:26;99777.53;;;22.51;45.27
76553;BME280;65395;53.168;18.156;2023-04-24T12:32:57;99780.73;;;22.78;44.96
76553;BME280;65395;53.168;18.156;2023-04-24T12:35:26;99774.45;;;23.06;44.76
76553;BME280;65395;53.168;18.156;2023-04-24T12:37:54;99780.20;;;23.46;43.88
76553;BME280;65395;53.168;18.156;2023-04-24T12:40:21;99778.72;;;23.66;42.70
76553;BME280;65395;53.168;18.156;2023-04-24T12:42:50;99772.38;;;23.86;42.55
76553;BME280;65395;53.168;18.156;2023-04-24T12:45:18;99770.12;;;24.14;41.14
76553;BME280;65395;53.168;18.156;2023-04-24T12:47:46;99771.11;;;24.33;41.28
76553;BME280;65395;53.168;18.156;2023-04-24T12:50:14;99774.14;;;24.47;39.95
76553;BME280;65395;53.168;18.156;2023-04-24T12:52:42;99768.95;;;24.43;38.64
76553;BME280;65395;53.168;18.156;2023-04-24T12:55:09;99763.62;;;24.36;38.37
76553;BME280;65395;53.168;18.156;2023-04-24T12:57:38;99764.14;;;24.30;37.23
76553;BME280;65395;53.168;18.156;2023-04-24T13:00:07;99755.83;;;24.21;37.94
76553;BME280;65395;53.168;18.156;2023-04-24T13:02:34;99752.03;;;24.14;38.33
76553;BME280;65395;53.168;18.156;2023-04-24T13:05:02;99746.17;;;24.05;39.02